首页
METAR-TAF:

METAR-TAF

机场 :

尼亞加拉瀑布城, 紐約州, 美国

纬度: 43-06-26N, 经度: 078-56-43W, 海拔: 180米

当前天气观测

该预报发布于12分钟前的15:53 UTC
风速13节,风向
温度 3°C
湿度 52%
气压 1021 hPa
能見度: 16.1公里
天空无云

METAR: KIAG 131553Z 19013KT 10SM CLR 03/M06 A3015 RMK AO2 SLP225 T00281061

时间: 11:05 (16:05 UTC)

预报

该预报发布于1小时和4分钟前的15:01 UTC
预报有效从13日的 15点(UTC)到 14日的 12点(UTC)
风速10节,风向
能見度: 10公里
散云层高于25000英尺
从 13日的 2100点(UTC)
风速6节,风向南转南东
能見度: 10公里
多云层高于6000英尺
从 14日的 0200点(UTC)
风速4节,风向东转东南
能見度: 10公里
多云层高于2500英尺
从 14日的 0600点(UTC)
风速3节,风向多变
能見度: 8.0公里
阴天层高于1500英尺
小雨
从 14日的 0800点(UTC)
风速4节,风向东北
能見度: 6.4公里
阴天层高于700英尺
小雨

TAF: KIAG 131501Z 1315/1412 19010KT P6SM SCT250 FM132100 16006KT P6SM BKN060 FM140200 11004KT P6SM BKN025 FM140600 VRB03KT 5SM -RA OVC015 FM140800 05004KT 4SM -RA OVC007

超过4000个机场的气象观测和天气预报(METAR&TAF报告)。

可查询的气象台以黄色和红色小点在地图上表示。

将鼠标移到小点上方,可查看气象台名称。

然后点击查看天气观测和预报。

如需切换地图:点击带黑十字的绿色按钮放大地图;点击带横线的绿色按钮缩小地图;或者点击绿色箭头查看邻近地区的地图。


METAR-TAF: